sensor_id;sensor_type;location;lat;lon;timestamp;temperature;humidity
7212;DHT22;3647;48.792;9.802;2022-11-18T05:54:04;7.60;99.90
7212;DHT22;3647;48.792;9.802;2022-11-18T05:56:35;7.60;99.90
7212;DHT22;3647;48.792;9.802;2022-11-18T05:59:02;8.70;99.90
7212;DHT22;3647;48.792;9.802;2022-11-18T06:01:32;7.60;99.90
7212;DHT22;3647;48.792;9.802;2022-11-18T06:04:01;7.80;99.90
7212;DHT22;3647;48.792;9.802;2022-11-18T06:06:28;7.60;99.90
7212;DHT22;3647;48.792;9.802;2022-11-18T06:08:59;7.60;99.90
7212;DHT22;3647;48.792;9.802;2022-11-18T06:11:30;7.60;99.90
7212;DHT22;3647;48.792;9.802;2022-11-18T06:14:00;7.50;99.90
7212;DHT22;3647;48.792;9.802;2022-11-18T06:16:30;7.60;99.90
7212;DHT22;3647;48.792;9.802;2022-11-18T06:18:58;9.80;99.90
7212;DHT22;3647;48.792;9.802;2022-11-18T06:21:25;7.50;99.90
7212;DHT22;3647;48.792;9.802;2022-11-18T06:23:51;7.40;99.90
7212;DHT22;3647;48.792;9.802;2022-11-18T06:26:19;7.40;99.90
7212;DHT22;3647;48.792;9.802;2022-11-18T06:28:47;7.40;99.90
7212;DHT22;3647;48.792;9.802;2022-11-18T06:31:14;7.40;99.90
7212;DHT22;3647;48.792;9.802;2022-11-18T06:33:42;7.40;99.90
7212;DHT22;3647;48.792;9.802;2022-11-18T06:49:07;7.40;99.90
7212;DHT22;3647;48.792;9.802;2022-11-18T06:51:34;7.30;99.90
7212;DHT22;3647;48.792;9.802;2022-11-18T06:54:01;7.30;99.90
7212;DHT22;3647;48.792;9.802;2022-11-18T06:56:27;7.30;99.90
7212;DHT22;3647;48.792;9.802;2022-11-18T06:58:55;7.30;99.90
7212;DHT22;3647;48.792;9.802;2022-11-18T07:01:24;7.30;99.90
7212;DHT22;3647;48.792;9.802;2022-11-18T07:03:52;7.30;99.90
7212;DHT22;3647;48.792;9.802;2022-11-18T07:06:21;7.30;99.90
7212;DHT22;3647;48.792;9.802;2022-11-18T07:08:49;7.30;99.90
7212;DHT22;3647;48.792;9.802;2022-11-18T09:38:53;8.10;99.90
7212;DHT22;3647;48.792;9.802;2022-11-18T09:44:30;8.00;99.90
7212;DHT22;3647;48.792;9.802;2022-11-18T09:47:07;8.10;99.90
7212;DHT22;3647;48.792;9.802;2022-11-18T09:49:39;8.10;99.90
7212;DHT22;3647;48.792;9.802;2022-11-18T09:52:12;8.10;99.90
7212;DHT22;3647;48.792;9.802;2022-11-18T09:54:42;8.40;99.90
7212;DHT22;3647;48.792;9.802;2022-11-18T09:57:13;8.10;99.90
7212;DHT22;3647;48.792;9.802;2022-11-18T09:59:41;8.10;99.90
7212;DHT22;3647;48.792;9.802;2022-11-18T10:02:27;8.20;99.90
7212;DHT22;3647;48.792;9.802;2022-11-18T10:04:56;10.00;99.90
7212;DHT22;3647;48.792;9.802;2022-11-18T10:07:35;9.30;99.90
7212;DHT22;3647;48.792;9.802;2022-11-18T10:10:11;8.30;99.90
7212;DHT22;3647;48.792;9.802;2022-11-18T10:12:44;8.30;99.90
7212;DHT22;3647;48.792;9.802;2022-11-18T10:15:20;8.30;99.90
7212;DHT22;3647;48.792;9.802;2022-11-18T10:17:54;8.30;99.90
7212;DHT22;3647;48.792;9.802;2022-11-18T10:20:32;8.30;99.90
7212;DHT22;3647;48.792;9.802;2022-11-18T10:23:10;8.40;99.90
7212;DHT22;3647;48.792;9.802;2022-11-18T10:25:39;8.40;99.90
7212;DHT22;3647;48.792;9.802;2022-11-18T10:28:15;8.40;99.90
7212;DHT22;3647;48.792;9.802;2022-11-18T10:30:43;8.50;99.90
7212;DHT22;3647;48.792;9.802;2022-11-18T10:33:27;8.50;99.90
7212;DHT22;3647;48.792;9.802;2022-11-18T10:36:09;8.50;99.90
7212;DHT22;3647;48.792;9.802;2022-11-18T10:38:36;8.50;99.90
7212;DHT22;3647;48.792;9.802;2022-11-18T10:41:07;8.60;99.90
7212;DHT22;3647;48.792;9.802;2022-11-18T13:27:03;9.30;99.90
7212;DHT22;3647;48.792;9.802;2022-11-18T13:29:36;9.30;99.90
7212;DHT22;3647;48.792;9.802;2022-11-18T13:32:15;9.40;99.90
7212;DHT22;3647;48.792;9.802;2022-11-18T13:34:46;9.30;99.90
7212;DHT22;3647;48.792;9.802;2022-11-18T13:37:17;9.30;99.90
7212;DHT22;3647;48.792;9.802;2022-11-18T13:39:45;9.30;99.90
7212;DHT22;3647;48.792;9.802;2022-11-18T13:42:17;9.30;99.90
7212;DHT22;3647;48.792;9.802;2022-11-18T13:44:50;9.30;99.90
7212;DHT22;3647;48.792;9.802;2022-11-18T13:47:22;9.30;99.90
7212;DHT22;3647;48.792;9.802;2022-11-18T13:49:59;9.30;99.90
7212;DHT22;3647;48.792;9.802;2022-11-18T13:52:30;9.10;99.90
7212;DHT22;3647;48.792;9.802;2022-11-18T13:55:03;9.20;99.90
7212;DHT22;3647;48.792;9.802;2022-11-18T13:57:34;9.20;99.90
7212;DHT22;3647;48.792;9.802;2022-11-18T14:00:05;9.20;99.90
7212;DHT22;3647;48.792;9.802;2022-11-18T14:02:37;9.20;99.90
7212;DHT22;3647;48.792;9.802;2022-11-18T14:05:14;9.10;99.90
7212;DHT22;3647;48.792;9.802;2022-11-18T14:07:54;9.10;99.90
7212;DHT22;3647;48.792;9.802;2022-11-18T14:10:29;9.00;99.90
7212;DHT22;3647;48.792;9.802;2022-11-18T14:13:00;8.90;99.90
7212;DHT22;3647;48.792;9.802;2022-11-18T14:15:34;8.90;99.90
7212;DHT22;3647;48.792;9.802;2022-11-18T14:18:02;8.90;99.90
7212;DHT22;3647;48.792;9.802;2022-11-18T14:20:31;8.90;99.90
7212;DHT22;3647;48.792;9.802;2022-11-18T14:22:59;8.90;99.90
7212;DHT22;3647;48.792;9.802;2022-11-18T14:25:29;8.90;99.90
7212;DHT22;3647;48.792;9.802;2022-11-18T14:28:08;8.90;99.90
7212;DHT22;3647;48.792;9.802;2022-11-18T14:30:37;8.90;99.90
7212;DHT22;3647;48.792;9.802;2022-11-18T14:33:13;9.00;99.90
7212;DHT22;3647;48.792;9.802;2022-11-18T14:35:43;8.90;99.90
7212;DHT22;3647;48.792;9.802;2022-11-18T14:38:12;9.00;99.90
7212;DHT22;3647;48.792;9.802;2022-11-18T14:40:39;8.90;99.90
7212;DHT22;3647;48.792;9.802;2022-11-18T14:43:08;8.90;99.90
7212;DHT22;3647;48.792;9.802;2022-11-18T14:45:37;8.90;99.90
7212;DHT22;3647;48.792;9.802;2022-11-18T14:48:05;8.90;99.90
7212;DHT22;3647;48.792;9.802;2022-11-18T14:50:32;8.90;99.90
7212;DHT22;3647;48.792;9.802;2022-11-18T14:52:59;8.80;99.90
7212;DHT22;3647;48.792;9.802;2022-11-18T14:55:26;8.80;99.90
7212;DHT22;3647;48.792;9.802;2022-11-18T14:57:52;8.70;99.90
7212;DHT22;3647;48.792;9.802;2022-11-18T15:00:19;8.70;99.90
7212;DHT22;3647;48.792;9.802;2022-11-18T15:02:47;10.10;99.90
7212;DHT22;3647;48.792;9.802;2022-11-18T15:05:14;8.60;99.90
7212;DHT22;3647;48.792;9.802;2022-11-18T15:07:41;8.60;99.90
7212;DHT22;3647;48.792;9.802;2022-11-18T15:10:11;8.50;99.90
7212;DHT22;3647;48.792;9.802;2022-11-18T15:12:39;8.60;99.90
7212;DHT22;3647;48.792;9.802;2022-11-18T15:15:07;9.30;99.90
7212;DHT22;3647;48.792;9.802;2022-11-18T15:17:34;8.60;99.90
7212;DHT22;3647;48.792;9.802;2022-11-18T15:20:03;9.10;99.90
7212;DHT22;3647;48.792;9.802;2022-11-18T15:22:31;8.60;99.90
7212;DHT22;3647;48.792;9.802;2022-11-18T15:24:58;8.50;99.90
7212;DHT22;3647;48.792;9.802;2022-11-18T15:27:25;8.50;99.90
7212;DHT22;3647;48.792;9.802;2022-11-18T15:29:52;8.50;99.90
7212;DHT22;3647;48.792;9.802;2022-11-18T15:32:19;8.50;99.90
7212;DHT22;3647;48.792;9.802;2022-11-18T15:34:46;8.50;99.90
7212;DHT22;3647;48.792;9.802;2022-11-18T15:37:14;8.40;99.90
7212;DHT22;3647;48.792;9.802;2022-11-18T15:39:41;8.40;99.90
7212;DHT22;3647;48.792;9.802;2022-11-18T15:42:08;8.30;99.90
7212;DHT22;3647;48.792;9.802;2022-11-18T15:44:35;8.30;99.90
7212;DHT22;3647;48.792;9.802;2022-11-18T15:47:02;8.70;99.90
7212;DHT22;3647;48.792;9.802;2022-11-18T15:49:29;8.40;99.90
7212;DHT22;3647;48.792;9.802;2022-11-18T15:51:56;8.40;99.90
7212;DHT22;3647;48.792;9.802;2022-11-18T15:54:24;9.10;99.90
7212;DHT22;3647;48.792;9.802;2022-11-18T15:56:51;8.30;99.90
7212;DHT22;3647;48.792;9.802;2022-11-18T15:59:18;9.30;99.90
7212;DHT22;3647;48.792;9.802;2022-11-18T16:01:46;8.30;99.90
7212;DHT22;3647;48.792;9.802;2022-11-18T16:04:14;8.30;99.90
7212;DHT22;3647;48.792;9.802;2022-11-18T16:06:42;8.40;99.90
7212;DHT22;3647;48.792;9.802;2022-11-18T16:09:09;8.30;99.90
7212;DHT22;3647;48.792;9.802;2022-11-18T16:11:38;8.30;99.90
7212;DHT22;3647;48.792;9.802;2022-11-18T16:14:22;8.50;99.90
7212;DHT22;3647;48.792;9.802;2022-11-18T16:16:51;8.30;99.90
7212;DHT22;3647;48.792;9.802;2022-11-18T16:19:20;8.50;99.90
7212;DHT22;3647;48.792;9.802;2022-11-18T16:21:50;8.40;99.90
7212;DHT22;3647;48.792;9.802;2022-11-18T16:24:20;8.40;99.90
7212;DHT22;3647;48.792;9.802;2022-11-18T16:26:49;8.40;99.90
7212;DHT22;3647;48.792;9.802;2022-11-18T16:29:16;8.20;99.90
7212;DHT22;3647;48.792;9.802;2022-11-18T16:31:45;9.60;99.90
7212;DHT22;3647;48.792;9.802;2022-11-18T16:34:16;8.20;99.90
7212;DHT22;3647;48.792;9.802;2022-11-18T16:36:44;8.10;99.90
7212;DHT22;3647;48.792;9.802;2022-11-18T16:39:13;8.10;99.90
7212;DHT22;3647;48.792;9.802;2022-11-18T16:41:40;8.50;99.90
7212;DHT22;3647;48.792;9.802;2022-11-18T16:44:10;8.10;99.90
7212;DHT22;3647;48.792;9.802;2022-11-18T16:46:39;8.00;99.90
7212;DHT22;3647;48.792;9.802;2022-11-18T16:49:10;8.00;99.90
7212;DHT22;3647;48.792;9.802;2022-11-18T16:51:39;8.00;99.90
7212;DHT22;3647;48.792;9.802;2022-11-18T16:54:09;7.90;99.90
7212;DHT22;3647;48.792;9.802;2022-11-18T16:56:39;7.90;99.90
7212;DHT22;3647;48.792;9.802;2022-11-18T16:59:12;8.00;99.90
7212;DHT22;3647;48.792;9.802;2022-11-18T17:01:39;7.90;99.90
7212;DHT22;3647;48.792;9.802;2022-11-18T17:04:06;8.30;99.90
7212;DHT22;3647;48.792;9.802;2022-11-18T17:06:33;7.90;99.90
7212;DHT22;3647;48.792;9.802;2022-11-18T17:09:00;7.90;99.90
7212;DHT22;3647;48.792;9.802;2022-11-18T17:11:27;8.00;99.90
7212;DHT22;3647;48.792;9.802;2022-11-18T17:13:54;8.00;99.90
7212;DHT22;3647;48.792;9.802;2022-11-18T17:16:24;7.90;99.90
7212;DHT22;3647;48.792;9.802;2022-11-18T17:18:53;7.90;99.90
7212;DHT22;3647;48.792;9.802;2022-11-18T17:21:20;8.00;99.90
7212;DHT22;3647;48.792;9.802;2022-11-18T17:23:49;8.20;99.90
7212;DHT22;3647;48.792;9.802;2022-11-18T17:26:18;7.90;99.90
7212;DHT22;3647;48.792;9.802;2022-11-18T17:28:45;7.90;99.90
7212;DHT22;3647;48.792;9.802;2022-11-18T17:31:14;7.90;99.90
7212;DHT22;3647;48.792;9.802;2022-11-18T17:33:43;7.80;99.90
7212;DHT22;3647;48.792;9.802;2022-11-18T17:36:11;7.80;99.90
7212;DHT22;3647;48.792;9.802;2022-11-18T17:38:40;7.80;99.90
7212;DHT22;3647;48.792;9.802;2022-11-18T17:41:08;7.80;99.90
7212;DHT22;3647;48.792;9.802;2022-11-18T17:43:55;7.80;99.90
7212;DHT22;3647;48.792;9.802;2022-11-18T17:46:22;7.80;99.90
7212;DHT22;3647;48.792;9.802;2022-11-18T17:48:53;7.80;99.90
7212;DHT22;3647;48.792;9.802;2022-11-18T17:51:20;7.70;99.90
7212;DHT22;3647;48.792;9.802;2022-11-18T17:53:47;7.80;99.90
7212;DHT22;3647;48.792;9.802;2022-11-18T17:56:14;7.80;99.90
7212;DHT22;3647;48.792;9.802;2022-11-18T17:58:41;7.90;99.90
7212;DHT22;3647;48.792;9.802;2022-11-18T18:01:08;8.10;99.90
7212;DHT22;3647;48.792;9.802;2022-11-18T18:03:35;7.80;99.90
7212;DHT22;3647;48.792;9.802;2022-11-18T18:06:04;8.50;99.90
7212;DHT22;3647;48.792;9.802;2022-11-18T18:08:32;7.80;99.90
7212;DHT22;3647;48.792;9.802;2022-11-18T18:10:59;7.80;99.90
7212;DHT22;3647;48.792;9.802;2022-11-18T18:13:26;7.80;99.90
7212;DHT22;3647;48.792;9.802;2022-11-18T18:16:11;7.80;99.90
7212;DHT22;3647;48.792;9.802;2022-11-18T18:18:38;7.70;99.90
7212;DHT22;3647;48.792;9.802;2022-11-18T18:21:06;7.80;99.90
7212;DHT22;3647;48.792;9.802;2022-11-18T18:23:34;7.70;99.90
7212;DHT22;3647;48.792;9.802;2022-11-18T18:26:01;9.30;99.90
7212;DHT22;3647;48.792;9.802;2022-11-18T18:28:28;7.70;99.90
7212;DHT22;3647;48.792;9.802;2022-11-18T18:30:58;7.80;99.90
7212;DHT22;3647;48.792;9.802;2022-11-18T18:33:25;7.80;99.90
7212;DHT22;3647;48.792;9.802;2022-11-18T18:35:55;7.80;99.90
7212;DHT22;3647;48.792;9.802;2022-11-18T18:38:23;7.80;99.90
7212;DHT22;3647;48.792;9.802;2022-11-18T18:40:51;7.70;99.90
7212;DHT22;3647;48.792;9.802;2022-11-18T18:43:18;7.80;99.90
7212;DHT22;3647;48.792;9.802;2022-11-18T18:45:45;7.80;99.90
7212;DHT22;3647;48.792;9.802;2022-11-18T18:48:38;7.80;99.90
7212;DHT22;3647;48.792;9.802;2022-11-18T18:51:05;7.90;99.90
7212;DHT22;3647;48.792;9.802;2022-11-18T18:53:34;7.80;99.90
7212;DHT22;3647;48.792;9.802;2022-11-18T18:56:00;7.90;99.90
7212;DHT22;3647;48.792;9.802;2022-11-18T18:58:27;7.90;99.90
7212;DHT22;3647;48.792;9.802;2022-11-18T19:01:04;9.50;99.90
7212;DHT22;3647;48.792;9.802;2022-11-18T19:03:31;7.90;99.90
7212;DHT22;3647;48.792;9.802;2022-11-18T19:05:58;7.90;99.90
7212;DHT22;3647;48.792;9.802;2022-11-18T19:08:24;8.10;99.90
7212;DHT22;3647;48.792;9.802;2022-11-18T19:10:53;7.90;99.90
7212;DHT22;3647;48.792;9.802;2022-11-18T19:13:20;7.90;99.90
7212;DHT22;3647;48.792;9.802;2022-11-18T19:15:46;7.90;99.90
7212;DHT22;3647;48.792;9.802;2022-11-18T19:18:13;7.90;99.90
7212;DHT22;3647;48.792;9.802;2022-11-18T19:20:42;7.80;99.90
7212;DHT22;3647;48.792;9.802;2022-11-18T19:23:11;7.80;99.90
7212;DHT22;3647;48.792;9.802;2022-11-18T19:25:38;7.80;99.90
7212;DHT22;3647;48.792;9.802;2022-11-18T19:28:07;7.90;99.90
7212;DHT22;3647;48.792;9.802;2022-11-18T19:30:36;7.80;99.90
7212;DHT22;3647;48.792;9.802;2022-11-18T19:33:03;7.80;99.90
7212;DHT22;3647;48.792;9.802;2022-11-18T19:35:30;7.80;99.90
7212;DHT22;3647;48.792;9.802;2022-11-18T19:37:56;7.80;99.90
7212;DHT22;3647;48.792;9.802;2022-11-18T19:40:23;7.80;99.90
7212;DHT22;3647;48.792;9.802;2022-11-18T19:42:51;7.80;99.90
7212;DHT22;3647;48.792;9.802;2022-11-18T19:45:20;7.70;99.90
7212;DHT22;3647;48.792;9.802;2022-11-18T19:47:46;7.70;99.90
7212;DHT22;3647;48.792;9.802;2022-11-18T19:50:13;7.70;99.90
7212;DHT22;3647;48.792;9.802;2022-11-18T19:52:40;7.70;99.90
7212;DHT22;3647;48.792;9.802;2022-11-18T19:55:08;9.20;99.90
7212;DHT22;3647;48.792;9.802;2022-11-18T19:57:35;7.60;99.90
7212;DHT22;3647;48.792;9.802;2022-11-18T20:00:02;7.60;99.90
7212;DHT22;3647;48.792;9.802;2022-11-18T20:02:30;7.60;99.90
7212;DHT22;3647;48.792;9.802;2022-11-18T20:04:57;7.60;99.90
7212;DHT22;3647;48.792;9.802;2022-11-18T20:07:42;7.60;99.90
7212;DHT22;3647;48.792;9.802;2022-11-18T20:10:09;7.60;99.90
7212;DHT22;3647;48.792;9.802;2022-11-18T20:12:36;7.50;99.90
7212;DHT22;3647;48.792;9.802;2022-11-18T20:15:03;7.60;99.90
7212;DHT22;3647;48.792;9.802;2022-11-18T20:17:31;7.50;99.90
7212;DHT22;3647;48.792;9.802;2022-11-18T20:19:58;7.80;99.90
7212;DHT22;3647;48.792;9.802;2022-11-18T20:22:25;8.40;99.90
7212;DHT22;3647;48.792;9.802;2022-11-18T20:24:52;9.60;99.90
7212;DHT22;3647;48.792;9.802;2022-11-18T20:27:19;7.50;99.90
7212;DHT22;3647;48.792;9.802;2022-11-18T20:29:46;8.70;99.90
7212;DHT22;3647;48.792;9.802;2022-11-18T20:32:13;7.50;99.90
7212;DHT22;3647;48.792;9.802;2022-11-18T20:34:41;7.50;99.90
7212;DHT22;3647;48.792;9.802;2022-11-18T20:37:08;7.50;99.90
7212;DHT22;3647;48.792;9.802;2022-11-18T20:39:36;7.70;99.90
7212;DHT22;3647;48.792;9.802;2022-11-18T20:42:03;7.50;99.90
7212;DHT22;3647;48.792;9.802;2022-11-18T20:44:47;7.20;99.90
7212;DHT22;3647;48.792;9.802;2022-11-18T20:47:14;7.70;99.90
7212;DHT22;3647;48.792;9.802;2022-11-18T20:49:43;7.70;99.90
7212;DHT22;3647;48.792;9.802;2022-11-18T20:52:09;7.50;99.90
7212;DHT22;3647;48.792;9.802;2022-11-18T20:54:36;7.40;99.90
7212;DHT22;3647;48.792;9.802;2022-11-18T20:57:03;7.40;99.90
7212;DHT22;3647;48.792;9.802;2022-11-18T20:59:30;7.40;99.90
7212;DHT22;3647;48.792;9.802;2022-11-18T21:01:57;7.60;99.90
7212;DHT22;3647;48.792;9.802;2022-11-18T21:04:24;7.70;99.90
7212;DHT22;3647;48.792;9.802;2022-11-18T21:06:52;7.40;99.90
7212;DHT22;3647;48.792;9.802;2022-11-18T21:09:23;7.90;99.90
